createdAt,value
2024-02-19T00:02:23.137Z,99988.56
2024-02-19T00:04:52.887Z,99992.84
2024-02-19T00:07:20.411Z,99989.63
2024-02-19T00:09:50.371Z,100001.81
2024-02-19T00:12:18.079Z,99993.59
2024-02-19T00:14:45.697Z,99993.72
2024-02-19T00:17:13.006Z,99996.09
2024-02-19T00:19:41.244Z,100002.19
2024-02-19T00:22:09.792Z,99998.97
2024-02-19T00:24:38.498Z,100000.63
2024-02-19T00:27:09.698Z,99996.34
2024-02-19T00:29:37.563Z,100000.41
2024-02-19T00:32:04.909Z,100004.84
2024-02-19T00:34:32.223Z,100003.03
2024-02-19T00:36:59.654Z,100006.41
2024-02-19T00:39:27.043Z,100004.47
2024-02-19T00:41:54.296Z,100004.59
2024-02-19T00:44:24.768Z,100012.34
2024-02-19T00:46:52.038Z,100016.31
2024-02-19T00:49:19.354Z,100006.84
2024-02-19T00:51:46.601Z,100015.47
2024-02-19T00:54:14.012Z,100017.50
2024-02-19T00:56:41.378Z,100023.81
2024-02-19T00:59:09.277Z,100020.72
2024-02-19T01:01:36.653Z,100027.91
2024-02-19T01:04:04.252Z,100033.16
2024-02-19T01:06:31.774Z,100031.47
2024-02-19T01:08:59.105Z,100029.81
2024-02-19T01:11:26.481Z,100032.56
2024-02-19T01:13:53.920Z,100031.00
2024-02-19T01:16:21.354Z,100035.75
2024-02-19T01:18:48.958Z,100037.31
2024-02-19T01:21:16.379Z,100039.38
2024-02-19T01:23:43.744Z,100033.13
2024-02-19T01:26:11.087Z,100045.69
2024-02-19T01:28:41.247Z,100041.59
2024-02-19T01:31:09.394Z,100046.13
2024-02-19T01:33:40.094Z,100051.06
2024-02-19T01:36:07.774Z,100053.69
2024-02-19T01:38:35.181Z,100052.84
2024-02-19T01:41:02.493Z,100052.75
2024-02-19T01:43:29.843Z,100066.25
2024-02-19T01:45:57.338Z,100058.34
2024-02-19T01:48:24.981Z,100058.59
2024-02-19T01:50:52.880Z,100061.22
2024-02-19T01:53:20.174Z,100052.72
2024-02-19T01:55:49.789Z,100055.91
2024-02-19T01:58:17.272Z,100048.38
2024-02-19T02:00:48.551Z,100058.28
2024-02-19T02:03:23.946Z,100054.91
2024-02-19T02:05:51.296Z,100056.81
2024-02-19T02:08:19.386Z,100064.59
2024-02-19T02:10:46.886Z,100062.91
2024-02-19T02:13:14.388Z,100063.63
2024-02-19T02:15:41.684Z,100063.41
2024-02-19T02:18:09.655Z,100063.06
2024-02-19T02:20:37.052Z,100062.25
2024-02-19T02:23:05.033Z,100059.28
2024-02-19T02:25:35.088Z,100060.09
2024-02-19T02:28:03.379Z,100056.75
2024-02-19T02:30:30.845Z,100059.38
2024-02-19T02:32:58.763Z,100060.09
2024-02-19T02:35:26.801Z,100059.28
2024-02-19T02:37:54.026Z,100055.91
2024-02-19T02:40:22.094Z,100064.53
2024-02-19T02:42:49.735Z,100063.69
2024-02-19T02:45:17.158Z,100069.41
2024-02-19T02:47:44.594Z,100073.94
2024-02-19T02:50:11.820Z,100076.44
2024-02-19T02:52:38.972Z,100077.19
2024-02-19T02:55:06.789Z,100081.81
2024-02-19T02:57:34.386Z,100088.59
2024-02-19T03:00:01.617Z,100088.84
2024-02-19T03:02:34.259Z,100091.56
2024-02-19T03:05:02.055Z,100094.81
2024-02-19T03:07:30.722Z,100095.75
2024-02-19T03:09:59.148Z,100104.97
2024-02-19T03:12:26.443Z,100106.88
2024-02-19T03:14:53.795Z,100111.28
2024-02-19T03:17:34.916Z,100112.13
2024-02-19T03:20:13.056Z,100119.50
2024-02-19T03:22:43.432Z,100116.38
2024-02-19T03:25:13.305Z,100127.09
2024-02-19T03:27:41.733Z,100125.66
2024-02-19T03:30:11.020Z,100126.59
2024-02-19T03:32:39.525Z,100120.94
2024-02-19T03:35:09.208Z,100123.28
2024-02-19T03:37:37.131Z,100127.94
2024-02-19T03:40:08.048Z,100128.34
2024-02-19T03:42:36.206Z,100132.03
2024-02-19T03:45:04.953Z,100136.53
2024-02-19T03:47:32.731Z,100137.41
2024-02-19T03:50:00.334Z,100137.59
2024-02-19T03:52:27.587Z,100142.03
2024-02-19T03:54:55.003Z,100144.78
2024-02-19T03:57:23.978Z,100148.31
2024-02-19T03:59:51.617Z,100154.41
2024-02-19T04:02:19.183Z,100150.22
2024-02-19T04:04:47.313Z,100150.66
2024-02-19T04:07:14.660Z,100163.88
2024-02-19T04:09:43.343Z,100159.50
2024-02-19T04:12:10.751Z,100159.59
2024-02-19T04:14:42.070Z,100157.91
2024-02-19T04:17:09.418Z,100159.16
2024-02-19T04:19:36.768Z,100162.75
2024-02-19T04:22:04.290Z,100169.88
2024-02-19T04:24:31.615Z,100168.91
2024-02-19T04:26:59.003Z,100169.13
2024-02-19T04:29:26.770Z,100158.84
2024-02-19T04:31:53.948Z,100164.31
2024-02-19T04:34:21.243Z,100176.94
2024-02-19T04:36:48.643Z,100178.38
2024-02-19T04:39:15.972Z,100180.06
2024-02-19T04:41:43.255Z,100174.91
2024-02-19T04:44:10.534Z,100175.97
2024-02-19T04:46:38.443Z,100177.84
2024-02-19T04:49:06.232Z,100184.78
2024-02-19T04:51:33.732Z,100185.84
2024-02-19T04:54:02.200Z,100194.56
2024-02-19T04:56:29.439Z,100187.13
2024-02-19T04:58:57.206Z,100192.47
2024-02-19T05:01:24.489Z,100193.19
2024-02-19T05:03:51.817Z,100190.16
2024-02-19T05:06:19.140Z,100196.13
2024-02-19T05:08:47.194Z,100198.53
2024-02-19T05:11:15.889Z,100202.88
2024-02-19T05:13:43.265Z,100197.81
2024-02-19T05:16:11.590Z,100200.03
2024-02-19T05:18:38.903Z,100207.91
2024-02-19T05:21:07.595Z,100204.63
2024-02-19T05:23:35.011Z,100209.88
2024-02-19T05:26:04.140Z,100204.53
2024-02-19T05:28:34.134Z,100208.66
2024-02-19T05:31:03.430Z,100203.28
2024-02-19T05:33:30.883Z,100218.72
2024-02-19T05:35:58.247Z,100221.25
2024-02-19T05:38:25.489Z,100210.94
2024-02-19T05:40:53.015Z,100217.34
2024-02-19T05:43:21.435Z,100222.19
2024-02-19T05:45:48.848Z,100226.38
2024-02-19T05:48:16.262Z,100227.13
2024-02-19T05:50:43.778Z,100225.66
2024-02-19T05:53:11.034Z,100230.91
2024-02-19T05:55:39.334Z,100224.72
2024-02-19T05:58:06.822Z,100226.91
2024-02-19T06:00:34.128Z,100229.66
2024-02-19T06:03:06.298Z,100228.38
2024-02-19T06:05:33.691Z,100235.72
2024-02-19T06:08:01.213Z,100233.00
2024-02-19T06:10:28.493Z,100240.56
2024-02-19T06:12:55.766Z,100240.97
2024-02-19T06:15:25.279Z,100241.59
2024-02-19T06:17:56.395Z,100246.94
2024-02-19T06:20:23.828Z,100252.63
2024-02-19T06:22:51.021Z,100258.50
2024-02-19T06:25:18.484Z,100259.00
2024-02-19T06:27:49.014Z,100260.66
2024-02-19T06:30:18.243Z,100259.41
2024-02-19T06:32:45.725Z,100265.38
2024-02-19T06:35:13.037Z,100266.53
2024-02-19T06:37:41.429Z,100269.56
2024-02-19T06:40:09.393Z,100257.63
2024-02-19T06:42:37.056Z,100268.06
2024-02-19T06:45:04.629Z,100262.47
2024-02-19T06:47:32.110Z,100261.41
2024-02-19T06:49:59.470Z,100265.31
2024-02-19T06:52:26.760Z,100271.84
2024-02-19T06:54:54.011Z,100279.63
2024-02-19T06:57:21.485Z,100272.91
2024-02-19T06:59:49.894Z,100279.69
2024-02-19T07:02:17.317Z,100277.88
2024-02-19T07:04:46.699Z,100280.59
2024-02-19T07:07:15.296Z,100282.78
2024-02-19T07:09:42.786Z,100286.53
2024-02-19T07:12:11.618Z,100288.31
2024-02-19T07:14:38.782Z,100281.69
2024-02-19T07:17:07.135Z,100294.09
2024-02-19T07:19:35.534Z,100290.16
2024-02-19T07:22:03.572Z,100284.06
2024-02-19T07:24:31.905Z,100286.06
2024-02-19T07:26:59.288Z,100288.25
2024-02-19T07:29:27.634Z,100289.16
2024-02-19T07:31:55.149Z,100285.25
2024-02-19T07:34:22.990Z,100287.47
2024-02-19T07:36:50.603Z,100282.28
2024-02-19T07:39:20.713Z,100283.69
2024-02-19T07:41:48.063Z,100291.13
2024-02-19T07:44:15.422Z,100290.41
2024-02-19T07:46:42.733Z,100291.69
2024-02-19T07:49:10.682Z,100295.50
2024-02-19T07:51:38.012Z,100303.59
2024-02-19T07:54:05.549Z,100303.44
2024-02-19T07:56:33.438Z,100297.50
2024-02-19T07:59:00.698Z,100301.63
2024-02-19T08:01:28.000Z,100298.19
2024-02-19T08:03:55.338Z,100298.06
2024-02-19T08:06:22.682Z,100299.19
2024-02-19T08:08:50.153Z,100305.94
2024-02-19T08:11:19.864Z,100303.22
2024-02-19T08:13:47.761Z,100304.22
2024-02-19T08:16:15.678Z,100303.91
2024-02-19T08:18:43.257Z,100316.59
2024-02-19T08:21:10.990Z,100307.63
2024-02-19T08:23:38.342Z,100312.78
2024-02-19T08:26:05.645Z,100320.44
2024-02-19T08:28:32.975Z,100315.66
2024-02-19T08:31:00.452Z,100320.78
2024-02-19T08:33:27.811Z,100320.44
2024-02-19T08:35:56.119Z,100319.13
2024-02-19T08:38:23.302Z,100323.47
2024-02-19T08:40:50.697Z,100326.91
2024-02-19T08:43:18.107Z,100324.16
2024-02-19T08:45:45.437Z,100329.31
2024-02-19T08:48:13.402Z,100329.19
2024-02-19T08:50:40.845Z,100328.31
2024-02-19T08:53:08.081Z,100335.50
2024-02-19T08:55:36.072Z,100318.22
2024-02-19T08:58:03.562Z,100330.72
2024-02-19T09:00:34.181Z,100329.78
2024-02-19T09:03:03.758Z,100333.53
2024-02-19T09:05:31.031Z,100345.16
2024-02-19T09:07:58.332Z,100339.88
2024-02-19T09:10:25.839Z,100341.25
2024-02-19T09:12:53.093Z,100333.53
2024-02-19T09:15:20.817Z,100338.03
2024-02-19T09:17:50.054Z,100333.41
2024-02-19T09:20:18.336Z,100335.91
2024-02-19T09:22:45.759Z,100338.41
2024-02-19T09:25:15.086Z,100338.16
2024-02-19T09:27:42.529Z,100339.19
2024-02-19T09:30:10.227Z,100337.09
2024-02-19T09:32:37.460Z,100339.78
2024-02-19T09:35:05.743Z,100334.94
2024-02-19T09:37:33.070Z,100335.22
2024-02-19T09:40:01.138Z,100337.56
2024-02-19T09:42:30.380Z,100341.19
2024-02-19T09:44:57.717Z,100344.31
2024-02-19T09:47:25.207Z,100350.88
2024-02-19T09:49:53.801Z,100340.03
2024-02-19T09:52:29.538Z,100346.69
2024-02-19T09:54:58.365Z,100336.00
2024-02-19T09:57:27.136Z,100341.56
2024-02-19T09:59:57.148Z,100347.03
2024-02-19T10:02:24.383Z,100345.84
2024-02-19T10:04:51.846Z,100346.09
2024-02-19T10:07:20.341Z,100344.44
2024-02-19T10:09:51.644Z,100343.16
2024-02-19T10:12:19.957Z,100348.72
2024-02-19T10:14:47.363Z,100346.78
2024-02-19T10:17:21.565Z,100335.84
2024-02-19T10:19:59.952Z,100337.66
2024-02-19T10:22:27.233Z,100338.63
2024-02-19T10:24:54.563Z,100336.88
2024-02-19T10:27:22.214Z,100335.19
2024-02-19T10:29:49.475Z,100339.34
2024-02-19T10:32:16.739Z,100334.06
2024-02-19T10:34:43.990Z,100331.19
2024-02-19T10:37:11.429Z,100318.97
2024-02-19T10:39:38.882Z,100333.69
2024-02-19T10:42:06.338Z,100337.38
2024-02-19T10:44:35.999Z,100340.63
2024-02-19T10:47:03.903Z,100325.72
2024-02-19T10:49:31.245Z,100321.97
2024-02-19T10:51:59.885Z,100315.31
2024-02-19T10:54:29.839Z,100324.44
2024-02-19T10:57:09.014Z,100321.38
2024-02-19T10:59:40.284Z,100325.94
2024-02-19T11:02:14.148Z,100318.22
2024-02-19T11:04:42.723Z,100310.72
2024-02-19T11:07:10.091Z,100314.06
2024-02-19T11:09:38.623Z,100317.19
2024-02-19T11:12:07.067Z,100318.09
2024-02-19T11:14:37.567Z,100323.25
2024-02-19T11:17:06.026Z,100322.69
2024-02-19T11:19:40.864Z,100315.88
2024-02-19T11:22:11.472Z,100324.00
2024-02-19T11:24:40.787Z,100318.53
2024-02-19T11:27:11.686Z,100321.41
2024-02-19T11:29:46.890Z,100314.38
2024-02-19T11:32:22.639Z,100316.69
2024-02-19T11:34:56.903Z,100310.53
2024-02-19T11:37:26.846Z,100299.22
2024-02-19T11:39:55.326Z,100310.88
2024-02-19T11:42:24.117Z,100313.38
2024-02-19T11:44:51.579Z,100311.72
2024-02-19T11:47:19.114Z,100314.09
2024-02-19T11:49:47.740Z,100317.34
2024-02-19T11:52:15.934Z,100310.47
2024-02-19T11:54:43.863Z,100301.94
2024-02-19T11:57:14.008Z,100310.16
2024-02-19T11:59:41.953Z,100314.28
2024-02-19T12:02:10.959Z,100309.63
2024-02-19T12:04:40.753Z,100305.47
2024-02-19T12:07:11.196Z,100311.22
2024-02-19T12:09:39.716Z,100307.81
2024-02-19T12:12:07.189Z,100304.59
2024-02-19T12:14:34.633Z,100306.84
2024-02-19T12:17:05.335Z,100306.66
2024-02-19T12:19:33.465Z,100303.47
2024-02-19T12:22:00.934Z,100303.38
2024-02-19T12:24:28.358Z,100314.38
2024-02-19T12:26:55.611Z,100316.06
2024-02-19T12:29:23.890Z,100308.75
2024-02-19T12:31:51.162Z,100312.63
2024-02-19T12:34:18.561Z,100312.81
2024-02-19T12:36:55.193Z,100307.94
2024-02-19T12:39:22.467Z,100311.28
2024-02-19T12:42:11.295Z,100306.13
2024-02-19T12:44:42.392Z,100306.47
2024-02-19T12:47:09.805Z,100308.47
2024-02-19T12:49:39.816Z,100304.88
2024-02-19T12:52:09.820Z,100302.19
2024-02-19T12:54:37.671Z,100306.22
2024-02-19T12:57:07.234Z,100301.28
2024-02-19T12:59:34.534Z,100309.88
2024-02-19T13:02:02.053Z,100313.41
2024-02-19T13:04:29.264Z,100302.19
2024-02-19T13:06:57.484Z,100310.47
2024-02-19T13:09:26.395Z,100312.41
2024-02-19T13:11:54.215Z,100312.53
2024-02-19T13:14:22.191Z,100313.44
2024-02-19T13:16:58.435Z,100308.25
2024-02-19T13:19:33.855Z,100308.91
2024-02-19T13:22:02.590Z,100308.38
2024-02-19T13:24:30.118Z,100304.41
2024-02-19T13:26:59.755Z,100314.06
2024-02-19T13:29:27.140Z,100311.50
2024-02-19T13:31:55.076Z,100312.03
2024-02-19T13:34:22.698Z,100310.50
2024-02-19T13:36:51.959Z,100321.69
2024-02-19T13:39:22.638Z,100310.50
2024-02-19T13:41:51.116Z,100313.72
2024-02-19T13:44:18.659Z,100316.19
2024-02-19T13:46:47.192Z,100320.00
2024-02-19T13:49:15.951Z,100315.47
2024-02-19T13:51:43.676Z,100317.03
2024-02-19T13:54:11.294Z,100314.69
2024-02-19T13:56:38.528Z,100315.41
2024-02-19T13:59:08.568Z,100328.50
2024-02-19T14:01:38.712Z,100336.47
2024-02-19T14:04:07.878Z,100325.84
2024-02-19T14:06:35.300Z,100323.84
2024-02-19T14:09:03.761Z,100330.75
2024-02-19T14:11:31.121Z,100338.47
2024-02-19T14:14:02.455Z,100333.81
2024-02-19T14:16:31.662Z,100347.44
2024-02-19T14:19:01.070Z,100345.97
2024-02-19T14:21:29.829Z,100351.06
2024-02-19T14:23:57.449Z,100351.97
2024-02-19T14:26:30.326Z,100349.34
2024-02-19T14:29:02.726Z,100352.75
2024-02-19T14:31:30.746Z,100357.09
2024-02-19T14:33:58.251Z,100357.84
2024-02-19T14:36:25.796Z,100363.75
2024-02-19T14:38:54.254Z,100356.78
2024-02-19T14:41:22.937Z,100355.72
2024-02-19T14:43:50.464Z,100367.81
2024-02-19T14:46:18.039Z,100365.78
2024-02-19T14:48:47.102Z,100361.25
2024-02-19T14:51:17.514Z,100356.66
2024-02-19T14:53:46.731Z,100356.28
2024-02-19T14:56:14.124Z,100361.31
2024-02-19T14:58:42.116Z,100362.25
2024-02-19T15:01:09.420Z,100364.06
2024-02-19T15:03:39.141Z,100353.38
2024-02-19T15:06:09.680Z,100360.91
2024-02-19T15:08:39.105Z,100363.28
2024-02-19T15:11:06.588Z,100353.69
2024-02-19T15:13:35.222Z,100363.50
2024-02-19T15:16:03.018Z,100362.66
2024-02-19T15:18:30.707Z,100366.06
2024-02-19T15:20:58.294Z,100363.41
2024-02-19T15:23:25.789Z,100363.47
2024-02-19T15:25:53.432Z,100368.00
2024-02-19T15:28:21.718Z,100365.81
2024-02-19T15:30:49.277Z,100370.03
2024-02-19T15:33:16.846Z,100374.94
2024-02-19T15:35:45.334Z,100380.00
2024-02-19T15:38:13.837Z,100381.09
2024-02-19T15:40:42.192Z,100370.38
2024-02-19T15:43:27.915Z,100375.66
2024-02-19T15:45:55.626Z,100380.91
2024-02-19T15:48:23.065Z,100371.91
2024-02-19T15:50:52.101Z,100384.63
2024-02-19T15:53:28.463Z,100380.53
2024-02-19T15:55:59.791Z,100375.41
2024-02-19T15:58:27.644Z,100386.53
2024-02-19T16:00:55.690Z,100384.38
2024-02-19T16:03:24.944Z,100388.66
2024-02-19T16:05:59.718Z,100392.88
2024-02-19T16:08:33.229Z,100390.75
2024-02-19T16:11:07.479Z,100389.78
2024-02-19T16:13:36.269Z,100397.13
2024-02-19T16:16:04.694Z,100389.75
2024-02-19T16:18:51.145Z,100400.09
2024-02-19T16:21:18.951Z,100398.16
2024-02-19T16:23:46.295Z,100398.56
2024-02-19T16:26:13.530Z,100393.69
2024-02-19T16:28:48.119Z,100397.97
2024-02-19T16:31:15.456Z,100404.81
2024-02-19T16:33:43.187Z,100394.59
2024-02-19T16:36:10.944Z,100399.84
2024-02-19T16:38:43.545Z,100396.47
2024-02-19T16:41:11.825Z,100401.22
2024-02-19T16:43:39.130Z,100402.13
2024-02-19T16:46:06.653Z,100398.22
2024-02-19T16:48:42.758Z,100401.47
2024-02-19T16:51:11.678Z,100401.69
2024-02-19T16:53:39.245Z,100392.06
2024-02-19T16:56:07.146Z,100404.56
2024-02-19T16:58:38.244Z,100397.00
2024-02-19T17:01:06.965Z,100396.78
2024-02-19T17:03:34.496Z,100396.88
2024-02-19T17:06:01.974Z,100394.56
2024-02-19T17:08:29.988Z,100394.97
2024-02-19T17:10:57.617Z,100395.72
2024-02-19T17:13:26.157Z,100391.13
2024-02-19T17:15:53.616Z,100399.25
2024-02-19T17:18:41.141Z,100399.50
2024-02-19T17:21:10.441Z,100385.72
2024-02-19T17:23:37.717Z,100397.88
2024-02-19T17:26:05.053Z,100401.47
2024-02-19T17:28:32.955Z,100412.84
2024-02-19T17:31:01.879Z,100407.69
2024-02-19T17:33:29.506Z,100407.47
2024-02-19T17:35:56.901Z,100406.63
2024-02-19T17:38:24.112Z,100402.34
2024-02-19T17:40:51.357Z,100399.47
2024-02-19T17:43:19.123Z,100405.75
2024-02-19T17:45:47.709Z,100399.50
2024-02-19T17:48:15.890Z,100397.34
2024-02-19T17:50:43.416Z,100396.06
2024-02-19T17:53:10.825Z,100402.72
2024-02-19T17:55:38.115Z,100400.56
2024-02-19T17:58:06.523Z,100392.31
2024-02-19T18:00:33.796Z,100396.56
2024-02-19T18:03:02.927Z,100391.00
2024-02-19T18:05:31.026Z,100406.06
2024-02-19T18:07:58.494Z,100400.34
2024-02-19T18:10:25.948Z,100411.38
2024-02-19T18:12:53.468Z,100406.38
2024-02-19T18:15:25.206Z,100404.59
2024-02-19T18:17:54.111Z,100405.63
2024-02-19T18:20:21.733Z,100405.81
2024-02-19T18:22:49.110Z,100407.69
2024-02-19T18:25:19.624Z,100406.84
2024-02-19T18:27:49.805Z,100411.06
2024-02-19T18:30:16.997Z,100409.19
2024-02-19T18:32:44.758Z,100401.06
2024-02-19T18:35:12.417Z,100403.78
2024-02-19T18:37:39.898Z,100409.69
2024-02-19T18:40:11.917Z,100412.84
2024-02-19T18:42:46.302Z,100409.09
2024-02-19T18:45:13.937Z,100407.56
2024-02-19T18:47:44.080Z,100403.09
2024-02-19T18:50:13.120Z,100405.38
2024-02-19T18:52:40.689Z,100409.59
2024-02-19T18:55:09.440Z,100405.38
2024-02-19T18:57:37.496Z,100411.91
2024-02-19T19:00:10.263Z,100410.50
2024-02-19T19:02:39.597Z,100411.66
2024-02-19T19:05:26.325Z,100409.47
2024-02-19T19:07:54.499Z,100404.09
2024-02-19T19:10:23.687Z,100409.00
2024-02-19T19:12:51.222Z,100410.72
2024-02-19T19:15:18.585Z,100404.56
2024-02-19T19:17:46.944Z,100404.03
2024-02-19T19:20:14.740Z,100408.09
2024-02-19T19:22:42.433Z,100407.84
2024-02-19T19:25:10.589Z,100405.66
2024-02-19T19:27:38.002Z,100414.91
2024-02-19T19:30:06.051Z,100411.19
2024-02-19T19:32:36.236Z,100410.03
2024-02-19T19:35:03.994Z,100400.47
2024-02-19T19:37:31.753Z,100411.50
2024-02-19T19:40:02.116Z,100419.00
2024-02-19T19:42:31.034Z,100415.34
2024-02-19T19:45:00.422Z,100407.13
2024-02-19T19:47:31.645Z,100417.25
2024-02-19T19:49:59.088Z,100412.63
2024-02-19T19:52:26.508Z,100417.28
2024-02-19T19:54:55.971Z,100416.53
2024-02-19T19:57:29.407Z,100417.88
2024-02-19T19:59:58.094Z,100411.81
2024-02-19T20:02:25.595Z,100408.72
2024-02-19T20:04:53.026Z,100415.25
2024-02-19T20:07:23.882Z,100409.41
2024-02-19T20:09:51.422Z,100411.84
2024-02-19T20:12:20.992Z,100411.25
2024-02-19T20:14:48.367Z,100417.63
2024-02-19T20:17:21.024Z,100409.97
2024-02-19T20:19:50.658Z,100418.09
2024-02-19T20:22:18.877Z,100418.59
2024-02-19T20:24:47.092Z,100418.06
2024-02-19T20:27:15.357Z,100425.47
2024-02-19T20:29:42.569Z,100424.88
2024-02-19T20:32:09.861Z,100415.00
2024-02-19T20:34:37.697Z,100418.69
2024-02-19T20:37:05.228Z,100424.38
2024-02-19T20:39:32.782Z,100425.44
2024-02-19T20:42:00.180Z,100420.91
2024-02-19T20:44:27.508Z,100432.44
2024-02-19T20:46:56.913Z,100433.50
2024-02-19T20:49:24.363Z,100435.41
2024-02-19T20:51:51.630Z,100431.66
2024-02-19T20:54:18.924Z,100439.16
2024-02-19T20:56:46.081Z,100434.66
2024-02-19T20:59:13.794Z,100439.03
2024-02-19T21:01:42.544Z,100437.34
2024-02-19T21:04:10.617Z,100434.81
2024-02-19T21:06:37.819Z,100440.31
2024-02-19T21:09:06.789Z,100431.09
2024-02-19T21:11:34.540Z,100442.94
2024-02-19T21:14:04.129Z,100448.09
2024-02-19T21:16:32.704Z,100446.16
2024-02-19T21:19:00.815Z,100453.09
2024-02-19T21:21:34.463Z,100449.00
2024-02-19T21:24:03.802Z,100450.84
2024-02-19T21:26:32.234Z,100456.13
2024-02-19T21:29:00.555Z,100451.13
2024-02-19T21:31:27.959Z,100450.22
2024-02-19T21:33:55.681Z,100453.06
2024-02-19T21:36:23.144Z,100455.72
2024-02-19T21:38:51.395Z,100462.56
2024-02-19T21:41:18.947Z,100460.13
2024-02-19T21:43:46.370Z,100459.28
2024-02-19T21:46:13.766Z,100462.72
2024-02-19T21:48:43.797Z,100453.59
2024-02-19T21:51:11.209Z,100465.69
2024-02-19T21:53:38.549Z,100472.38
2024-02-19T21:56:06.230Z,100468.25
2024-02-19T21:58:33.491Z,100473.16
2024-02-19T22:01:00.952Z,100466.31
2024-02-19T22:03:28.589Z,100459.63
2024-02-19T22:05:55.822Z,100470.06
2024-02-19T22:08:23.449Z,100470.84
2024-02-19T22:10:50.945Z,100470.84
2024-02-19T22:13:18.231Z,100473.69
2024-02-19T22:15:47.751Z,100473.69
2024-02-19T22:18:15.068Z,100474.72
2024-02-19T22:20:42.849Z,100473.31
2024-02-19T22:23:10.191Z,100476.06
2024-02-19T22:25:37.724Z,100467.63
2024-02-19T22:28:05.343Z,100470.44
2024-02-19T22:30:33.600Z,100475.75
2024-02-19T22:33:00.873Z,100464.69
2024-02-19T22:35:28.904Z,100482.00
2024-02-19T22:37:56.183Z,100477.84
2024-02-19T22:40:23.706Z,100472.63
2024-02-19T22:42:52.444Z,100475.13
2024-02-19T22:45:20.283Z,100469.66
2024-02-19T22:47:47.870Z,100470.53
2024-02-19T22:50:15.489Z,100468.75
2024-02-19T22:52:43.800Z,100468.41
2024-02-19T22:55:11.684Z,100473.84
2024-02-19T22:57:39.400Z,100467.72
2024-02-19T23:00:17.070Z,100468.84
2024-02-19T23:02:44.350Z,100473.25
2024-02-19T23:05:11.510Z,100469.13
2024-02-19T23:07:39.216Z,100473.50
2024-02-19T23:12:35.096Z,100462.50
2024-02-19T23:15:02.347Z,100464.19
2024-02-19T23:17:30.816Z,100459.50
2024-02-19T23:19:58.468Z,100460.19
2024-02-19T23:22:25.796Z,100459.06
2024-02-19T23:24:53.454Z,100455.19
2024-02-19T23:27:20.707Z,100453.38
2024-02-19T23:29:48.884Z,100451.41
2024-02-19T23:32:16.118Z,100449.94
2024-02-19T23:34:43.349Z,100444.22
2024-02-19T23:37:10.976Z,100443.94
2024-02-19T23:39:39.357Z,100438.16
2024-02-19T23:42:06.835Z,100441.06
2024-02-19T23:44:35.053Z,100437.94
2024-02-19T23:47:02.421Z,100447.31
2024-02-19T23:49:29.824Z,100435.19
2024-02-19T23:51:57.303Z,100441.59
2024-02-19T23:54:24.695Z,100428.84
2024-02-19T23:56:51.932Z,100440.94
2024-02-19T23:59:19.977Z,100428.44
